Time;durP1;ratioP1;P1;durP2;ratioP2;P2;SDS_P1;SDS_P2;PMS_P1;PMS_P2;Temp;Humidity;BMP_temperature;BMP_pressure;BME280_temperature;BME280_humidity;BME280_pressure;Samples;Min_cycle;Max_cycle;Signal;HPM_P1;HPM_P2
2024/01/26 00:01:38;;;;;;;1.70;1.20;;;;;;;;;;4981237;28;20182;-90
2024/01/26 00:04:09;;;;;;;2.33;1.50;;;;;;;;;;5000116;28;20190;-90
2024/01/26 00:06:38;;;;;;;2.83;1.73;;;;;;;;;;4986202;28;20294;-90
2024/01/26 00:09:18;;;;;;;2.55;1.75;;;;;;;;;;4994086;28;20183;-91
2024/01/26 00:11:49;;;;;;;1.38;1.27;;;;;;;;;;5011003;28;20183;-90
2024/01/26 00:14:22;;;;;;;1.55;1.10;;;;;;;;;;4999041;28;20187;-90
2024/01/26 00:17:03;;;;;;;1.52;1.42;;;9.10;99.90;;;;;;4983257;28;20207;-90
2024/01/26 00:19:31;;;;;;;16.60;1.55;;;;;;;;;;4996602;28;20179;-90
2024/01/26 00:22:01;;;;;;;1.55;1.45;;;;;;;;;;4986205;28;20199;-90
2024/01/26 00:24:30;;;;;;;2.15;1.20;;;;;;;;;;4994609;28;20191;-91
2024/01/26 00:27:04;;;;;;;1.20;0.60;;;;;;;;;;4989120;28;21066;-89
2024/01/26 00:29:37;;;;;;;3.30;1.70;;;;;;;;;;4995535;28;20190;-91
2024/01/26 00:32:12;;;;;;;2.67;1.10;;;;;;;;;;4993740;28;20215;-91
2024/01/26 00:34:38;;;;;;;3.90;1.70;;;;;;;;;;4995116;28;20204;-90
2024/01/26 00:37:12;;;;;;;2.73;1.23;;;;;;;;;;4996406;28;20301;-91
2024/01/26 00:39:39;;;;;;;1.58;0.82;;;;;;;;;;4978040;28;20747;-90
2024/01/26 00:42:05;;;;;;;3.80;1.35;;;;;;;;;;4981808;28;20215;-90
2024/01/26 00:44:36;;;;;;;1.63;1.25;;;;;;;;;;4977471;28;20179;-89
2024/01/26 00:47:10;;;;;;;2.47;1.35;;;;;;;;;;4979362;28;20183;-91
2024/01/26 00:49:36;;;;;;;3.92;2.17;;;;;;;;;;4994287;28;20194;-91
2024/01/26 00:52:05;;;;;;;1.47;1.37;;;;;;;;;;4974688;28;20210;-90
2024/01/26 00:54:31;;;;;;;1.75;1.63;;;;;;;;;;4993215;28;20589;-90
2024/01/26 00:57:01;;;;;;;2.63;0.95;;;;;;;;;;4996734;28;20232;-91
2024/01/26 00:59:27;;;;;;;1.80;0.85;;;;;;;;;;4993604;28;20187;-90
2024/01/26 01:04:22;;;;;;;3.08;2.72;;;;;;;;;;4959616;28;20243;-85
2024/01/26 01:06:48;;;;;;;0.90;0.90;;;;;;;;;;4959779;28;20614;-84
2024/01/26 01:09:14;;;;;;;9.88;1.33;;;;;;;;;;4961762;28;20181;-85
2024/01/26 01:11:40;;;;;;;2.83;0.70;;;;;;;;;;4974118;28;20212;-87
2024/01/26 01:14:06;;;;;;;1.60;1.33;;;;;;;;;;4964449;29;20470;-87
2024/01/26 01:16:32;;;;;;;1.03;0.93;;;;;;;;;;4965285;28;20539;-87
2024/01/26 01:18:58;;;;;;;0.70;0.70;;;;;;;;;;4961200;28;20439;-85
2024/01/26 01:21:24;;;;;;;2.30;1.20;;;;;;;;;;4953357;28;20638;-84
2024/01/26 01:23:50;;;;;;;0.93;0.80;;;;;;;;;;4955373;28;20534;-85
2024/01/26 01:26:16;;;;;;;1.25;1.05;;;;;;;;;;4953404;28;20459;-85
2024/01/26 01:28:42;;;;;;;0.88;0.70;;;;;;;;;;4950167;28;20635;-84
2024/01/26 01:31:10;;;;;;;1.77;1.40;;;;;;;;;;4967308;28;20267;-85
2024/01/26 01:33:35;;;;;;;0.70;0.60;;;;;;;;;;4950793;28;20280;-83
2024/01/26 01:36:01;;;;;;;0.70;0.50;;;;;;;;;;4954325;28;20242;-82
2024/01/26 01:38:27;;;;;;;0.47;0.43;;;;;;;;;;4953996;29;20435;-86
2024/01/26 01:40:53;;;;;;;1.45;0.88;;;;;;;;;;4990631;28;20412;-89
2024/01/26 01:43:20;;;;;;;0.80;0.80;;;9.20;99.90;;;;;;4983125;28;20168;-87
2024/01/26 01:45:45;;;;;;;0.55;0.55;;;9.40;99.90;;;;;;4982323;28;20882;-86
2024/01/26 01:48:11;;;;;;;0.63;0.50;;;9.30;99.90;;;;;;4979274;28;20195;-86
2024/01/26 01:50:37;;;;;;;0.70;0.40;;;9.10;99.90;;;;;;4964020;28;20195;-86
2024/01/26 01:53:08;;;;;;;0.55;0.55;;;9.20;99.90;;;;;;4975811;28;20724;-88
2024/01/26 01:55:36;;;;;;;3.70;0.70;;;9.20;99.90;;;;;;4958594;28;20209;-87
2024/01/26 01:58:04;;;;;;;1.40;1.10;;;9.30;99.90;;;;;;4975947;28;20176;-86
2024/01/26 02:00:32;;;;;;;2.60;1.33;;;;;;;;;;4962443;29;20173;-87
2024/01/26 02:02:58;;;;;;;1.30;0.63;;;;;;;;;;4962230;28;20185;-90
2024/01/26 02:05:24;;;;;;;0.97;0.80;;;;;;;;;;4960340;28;20219;-85
2024/01/26 02:07:50;;;;;;;1.10;1.00;;;;;;;;;;4955862;28;20450;-85
2024/01/26 02:10:16;;;;;;;2.75;1.10;;;;;;;;;;4959305;28;20483;-85
2024/01/26 02:12:42;;;;;;;0.65;0.60;;;;;;;;;;4963854;28;20191;-87
2024/01/26 02:15:09;;;;;;;1.00;0.87;;;;;;;;;;4966760;28;20200;-84
2024/01/26 02:17:36;;;;;;;0.50;0.40;;;;;;;;;;4972775;28;20441;-86
2024/01/26 02:20:04;;;;;;;3.33;1.02;;;9.30;99.90;;;;;;4951911;29;20277;-85
2024/01/26 02:22:30;;;;;;;0.95;0.60;;;;;;;;;;4958787;28;20275;-85
2024/01/26 02:24:55;;;;;;;0.52;0.50;;;9.60;99.90;;;;;;4963691;28;20227;-89
2024/01/26 02:27:21;;;;;;;0.70;0.70;;;;;;;;;;4958071;29;20220;-87
2024/01/26 02:29:48;;;;;;;4.28;0.50;;;;;;;;;;4967605;28;20231;-86
2024/01/26 02:32:14;;;;;;;0.50;0.50;;;;;;;;;;4961764;29;20234;-87
2024/01/26 02:34:40;;;;;;;0.50;0.50;;;;;;;;;;4969657;28;20895;-85
2024/01/26 02:37:06;;;;;;;1.25;0.80;;;;;;;;;;4962485;29;20212;-87
2024/01/26 02:39:33;;;;;;;0.50;0.50;;;;;;;;;;4974190;28;20197;-87
2024/01/26 02:41:59;;;;;;;0.50;0.50;;;;;;;;;;4959785;29;20493;-86
2024/01/26 02:44:25;;;;;;;0.45;0.45;;;9.40;99.90;;;;;;4975386;28;20200;-88
2024/01/26 02:46:51;;;;;;;0.40;0.40;;;;;;;;;;4976428;28;20466;-89
2024/01/26 02:49:17;;;;;;;0.50;0.50;;;;;;;;;;4961345;28;20184;-86
2024/01/26 02:51:43;;;;;;;1.53;0.53;;;;;;;;;;4960705;28;20456;-86
2024/01/26 02:54:09;;;;;;;0.40;0.40;;;;;;;;;;4959668;28;20416;-87
2024/01/26 02:56:35;;;;;;;0.40;0.30;;;;;;;;;;4957885;28;20692;-85
2024/01/26 02:59:01;;;;;;;0.63;0.40;;;;;;;;;;4955626;29;20431;-84
2024/01/26 03:01:27;;;;;;;0.80;0.60;;;;;;;;;;4957581;28;20590;-86
2024/01/26 03:03:53;;;;;;;0.83;0.60;;;;;;;;;;4949500;28;20445;-86
2024/01/26 03:06:19;;;;;;;0.40;0.40;;;;;;;;;;4941128;28;20433;-86
2024/01/26 03:08:45;;;;;;;0.50;0.50;;;;;;;;;;4960000;28;20364;-86
2024/01/26 03:11:14;;;;;;;3.20;0.70;;;9.30;99.90;;;;;;4962330;28;20432;-87
2024/01/26 03:13:40;;;;;;;0.40;0.35;;;;;;;;;;4975230;28;20478;-90
2024/01/26 03:16:07;;;;;;;0.75;0.60;;;;;;;;;;4959466;28;20287;-87
2024/01/26 03:18:33;;;;;;;0.50;0.40;;;;;;;;;;4960257;28;20184;-87
2024/01/26 03:20:59;;;;;;;0.80;0.80;;;;;;;;;;4959231;29;20259;-86
2024/01/26 03:23:25;;;;;;;0.80;0.50;;;;;;;;;;4960582;29;20236;-89
2024/01/26 03:25:51;;;;;;;0.68;0.45;;;;;;;;;;4959754;28;20492;-88
2024/01/26 03:28:17;;;;;;;0.63;0.50;;;;;;;;;;4974818;28;20221;-87
2024/01/26 03:30:43;;;;;;;0.47;0.47;;;;;;;;;;4976503;28;20180;-87
2024/01/26 03:33:09;;;;;;;0.40;0.38;;;;;;;;;;4957170;29;20436;-87
2024/01/26 03:35:35;;;;;;;1.95;0.63;;;9.20;99.90;;;;;;4959529;28;20248;-88
2024/01/26 03:38:01;;;;;;;0.50;0.30;;;;;;;;;;4956499;28;20660;-87
2024/01/26 03:40:27;;;;;;;0.82;0.60;;;9.00;99.90;;;;;;4955311;29;20188;-86
2024/01/26 03:42:53;;;;;;;1.67;1.13;;;;;;;;;;4957306;29;20181;-87
2024/01/26 03:45:19;;;;;;;7.63;1.10;;;;;;;;;;4991378;23;20510;-86
2024/01/26 03:47:45;;;;;;;1.03;0.50;;;9.00;99.90;;;;;;4975920;28;20192;-86
2024/01/26 03:50:11;;;;;;;3.03;0.50;;;;;;;;;;4972634;28;20423;-87
2024/01/26 03:52:37;;;;;;;0.70;0.70;;;;;;;;;;4972376;28;20555;-87
2024/01/26 03:55:06;;;;;;;0.60;0.50;;;8.90;99.90;;;;;;4966039;28;20604;-87
2024/01/26 03:57:33;;;;;;;0.70;0.40;;;;;;;;;;4971930;28;20184;-87
2024/01/26 03:59:59;;;;;;;0.60;0.50;;;;;;;;;;4975358;28;20229;-86
2024/01/26 04:02:25;;;;;;;0.73;0.53;;;;;;;;;;4973143;28;20665;-86
2024/01/26 04:04:51;;;;;;;2.15;0.75;;;;;;;;;;4975105;28;20515;-87
2024/01/26 04:07:17;;;;;;;1.90;0.60;;;;;;;;;;4976750;28;20188;-86
2024/01/26 04:09:43;;;;;;;0.80;0.50;;;;;;;;;;4978100;28;20190;-87
2024/01/26 04:12:09;;;;;;;1.33;0.60;;;;;;;;;;4975273;28;20223;-87
2024/01/26 04:14:35;;;;;;;0.40;0.37;;;;;;;;;;4972723;28;20443;-87
2024/01/26 04:17:01;;;;;;;1.23;0.57;;;;;;;;;;4972931;28;20513;-87
2024/01/26 04:19:27;;;;;;;0.63;0.40;;;;;;;;;;4970482;28;20438;-87
2024/01/26 04:21:52;;;;;;;1.10;0.37;;;8.90;99.90;;;;;;4974191;28;20805;-87
2024/01/26 04:24:18;;;;;;;1.07;0.60;;;9.10;99.90;;;;;;4972360;28;20547;-87
2024/01/26 04:26:44;;;;;;;0.90;0.50;;;;;;;;;;4977926;28;20191;-87
2024/01/26 04:29:10;;;;;;;0.40;0.35;;;;;;;;;;4977253;28;20192;-87
2024/01/26 04:31:42;;;;;;;0.87;0.50;;;9.20;99.90;;;;;;4977319;28;20660;-87
2024/01/26 04:34:08;;;;;;;0.85;0.40;;;;;;;;;;4985687;28;20466;-87
2024/01/26 04:36:34;;;;;;;0.30;0.20;;;;;;;;;;4973385;28;20292;-87
2024/01/26 04:39:02;;;;;;;0.40;0.30;;;;;;;;;;4975470;28;20763;-85
2024/01/26 04:41:28;;;;;;;1.05;0.80;;;;;;;;;;4977392;28;20194;-86
2024/01/26 04:43:55;;;;;;;0.93;0.93;;;;;;;;;;4977668;28;20747;-85
2024/01/26 04:46:21;;;;;;;0.40;0.30;;;;;;;;;;4980017;28;20442;-86
2024/01/26 04:48:46;;;;;;;0.40;0.40;;;8.90;99.90;;;;;;4969791;28;20183;-87
2024/01/26 04:51:12;;;;;;;1.27;0.53;;;;;;;;;;4976265;28;20431;-86
2024/01/26 04:53:38;;;;;;;0.60;0.40;;;;;;;;;;4983940;28;20176;-86
2024/01/26 04:56:04;;;;;;;1.63;0.97;;;;;;;;;;4975411;28;20495;-85
2024/01/26 04:58:30;;;;;;;2.70;0.70;;;;;;;;;;4970672;28;20428;-85
2024/01/26 05:00:56;;;;;;;0.50;0.50;;;;;;;;;;4978866;28;20180;-86
2024/01/26 05:03:22;;;;;;;0.90;0.60;;;;;;;;;;4980896;28;20957;-86
2024/01/26 05:05:50;;;;;;;0.50;0.50;;;8.80;99.90;;;;;;4979691;28;20455;-86
2024/01/26 05:08:16;;;;;;;0.85;0.60;;;;;;;;;;4977266;28;20432;-86
2024/01/26 05:10:42;;;;;;;2.83;0.60;;;;;;;;;;4971505;28;20186;-86
2024/01/26 05:13:09;;;;;;;0.40;0.40;;;;;;;;;;4973235;28;20487;-87
2024/01/26 05:15:35;;;;;;;0.60;0.60;;;8.80;99.90;;;;;;4972039;28;20514;-87
2024/01/26 05:18:01;;;;;;;0.50;0.40;;;;;;;;;;4975726;28;20188;-87
2024/01/26 05:20:27;;;;;;;0.40;0.30;;;;;;;;;;4976492;28;20652;-85
2024/01/26 05:22:53;;;;;;;0.50;0.50;;;;;;;;;;4978856;28;20462;-86
2024/01/26 05:25:19;;;;;;;0.50;0.50;;;;;;;;;;4999249;28;20207;-84
2024/01/26 05:27:45;;;;;;;0.93;0.63;;;9.00;99.90;;;;;;4978315;28;20417;-84
2024/01/26 05:30:11;;;;;;;6.73;0.40;;;;;;;;;;4980761;28;20192;-85
2024/01/26 05:32:36;;;;;;;0.63;0.40;;;8.60;99.90;;;;;;4978326;28;20195;-85
2024/01/26 05:35:02;;;;;;;0.40;0.37;;;;;;;;;;4977850;28;20211;-86
2024/01/26 05:37:28;;;;;;;1.25;0.60;;;;;;;;;;4966741;28;20214;-86
2024/01/26 05:39:54;;;;;;;0.40;0.40;;;;;;;;;;4978044;28;20185;-89
2024/01/26 05:42:20;;;;;;;1.63;0.57;;;;;;;;;;4980738;28;20445;-90
2024/01/26 05:44:46;;;;;;;0.40;0.40;;;;;;;;;;4976851;28;20495;-88
2024/01/26 05:47:12;;;;;;;0.80;0.50;;;;;;;;;;4973882;28;20463;-84
2024/01/26 05:49:38;;;;;;;0.57;0.47;;;;;;;;;;4978150;28;20419;-84
2024/01/26 05:52:04;;;;;;;0.45;0.38;;;8.70;99.90;;;;;;4979032;28;20530;-86
2024/01/26 05:54:30;;;;;;;0.70;0.40;;;;;;;;;;4989537;28;20715;-86
2024/01/26 05:56:56;;;;;;;0.43;0.43;;;;;;;;;;4980590;28;20222;-84
2024/01/26 05:59:22;;;;;;;0.60;0.40;;;;;;;;;;4980156;28;20442;-85
2024/01/26 06:01:48;;;;;;;2.05;0.77;;;;;;;;;;4978041;28;20430;-84
2024/01/26 06:04:14;;;;;;;2.57;0.53;;;;;;;;;;4992185;28;20204;-84
2024/01/26 06:06:40;;;;;;;0.40;0.30;;;;;;;;;;4983688;28;20526;-83
2024/01/26 06:09:07;;;;;;;1.47;0.50;;;;;;;;;;4977630;28;20207;-84
2024/01/26 06:11:33;;;;;;;0.50;0.40;;;;;;;;;;4975112;28;20559;-84
2024/01/26 06:13:59;;;;;;;2.40;0.60;;;;;;;;;;4978855;28;20507;-85
2024/01/26 06:16:25;;;;;;;0.40;0.40;;;;;;;;;;4973664;28;20518;-83
2024/01/26 06:18:51;;;;;;;0.50;0.50;;;;;;;;;;4973023;28;20961;-84
2024/01/26 06:21:17;;;;;;;0.40;0.40;;;;;;;;;;4973844;28;20420;-84
2024/01/26 06:23:43;;;;;;;0.40;0.30;;;;;;;;;;4970664;28;20512;-84
2024/01/26 06:26:11;;;;;;;0.90;0.50;;;8.80;99.90;;;;;;4979823;28;20441;-84
2024/01/26 06:28:37;;;;;;;2.05;0.88;;;;;;;;;;4979937;28;20443;-84
2024/01/26 06:31:03;;;;;;;1.33;0.43;;;;;;;;;;4977336;28;20192;-84
2024/01/26 06:33:29;;;;;;;0.40;0.30;;;;;;;;;;4971508;28;20832;-84
2024/01/26 06:35:55;;;;;;;0.97;0.50;;;;;;;;;;4973689;28;20302;-84
2024/01/26 06:38:21;;;;;;;0.45;0.45;;;;;;;;;;4973953;28;21286;-83
2024/01/26 06:40:48;;;;;;;0.50;0.50;;;;;;;;;;4974324;28;20187;-83
2024/01/26 06:43:16;;;;;;;3.20;1.63;;;;;;;;;;4971416;28;20790;-83
2024/01/26 06:45:42;;;;;;;5.03;1.02;;;;;;;;;;4975541;28;20212;-83
2024/01/26 06:48:08;;;;;;;0.40;0.30;;;;;;;;;;4992195;28;20191;-83
2024/01/26 06:50:34;;;;;;;0.50;0.40;;;;;;;;;;4970801;28;20930;-82
2024/01/26 06:53:00;;;;;;;0.88;0.77;;;;;;;;;;4970422;28;20510;-83
2024/01/26 06:55:26;;;;;;;0.40;0.30;;;;;;;;;;4989632;28;20477;-83
2024/01/26 06:57:51;;;;;;;2.70;2.23;;;8.70;99.90;;;;;;4972125;28;21014;-83
2024/01/26 07:00:18;;;;;;;5.37;1.00;;;8.70;99.90;;;;;;4968532;28;20487;-82
2024/01/26 07:02:43;;;;;;;0.73;0.73;;;8.70;99.90;;;;;;4971323;28;20188;-83
2024/01/26 07:05:09;;;;;;;3.37;1.90;;;8.70;99.90;;;;;;4967195;28;20203;-83
2024/01/26 07:07:35;;;;;;;0.43;0.40;;;;;;;;;;4978338;28;20518;-84
2024/01/26 07:10:00;;;;;;;0.57;0.50;;;8.70;99.90;;;;;;4978622;28;20219;-83
2024/01/26 07:12:26;;;;;;;0.80;0.70;;;;;;;;;;4974452;28;20427;-84
2024/01/26 07:14:52;;;;;;;0.93;0.80;;;;;;;;;;4980127;28;20242;-84
2024/01/26 07:17:18;;;;;;;0.40;0.37;;;;;;;;;;4988483;28;20461;-83
2024/01/26 07:19:44;;;;;;;0.93;0.93;;;8.70;99.90;;;;;;4973423;28;20431;-83
2024/01/26 07:22:10;;;;;;;0.57;0.50;;;;;;;;;;4975239;28;20183;-83
2024/01/26 07:24:36;;;;;;;0.60;0.50;;;8.70;99.90;;;;;;4974828;28;20437;-84
2024/01/26 07:27:01;;;;;;;0.85;0.45;;;8.70;99.90;;;;;;4974448;28;20443;-84
2024/01/26 07:29:27;;;;;;;1.17;0.63;;;;;;;;;;4973242;28;20198;-83
2024/01/26 07:31:53;;;;;;;0.87;0.60;;;;;;;;;;4973274;28;20268;-84
2024/01/26 07:34:19;;;;;;;0.40;0.40;;;;;;;;;;4973962;28;20462;-84
2024/01/26 07:36:45;;;;;;;1.23;0.80;;;;;;;;;;4994022;28;20836;-84
2024/01/26 07:39:12;;;;;;;2.67;1.00;;;;;;;;;;4974360;28;20184;-84
2024/01/26 07:41:38;;;;;;;1.20;0.68;;;;;;;;;;4973831;28;21172;-85
2024/01/26 07:44:04;;;;;;;1.07;1.00;;;;;;;;;;4986478;28;20215;-84
2024/01/26 07:46:30;;;;;;;3.10;2.10;;;;;;;;;;4972543;28;20988;-83
2024/01/26 07:48:56;;;;;;;0.50;0.40;;;;;;;;;;4971042;28;20426;-83
2024/01/26 07:51:22;;;;;;;0.75;0.52;;;;;;;;;;4973537;28;20442;-85
2024/01/26 07:53:47;;;;;;;2.13;0.73;;;9.10;99.90;;;;;;4975623;28;20211;-85
2024/01/26 07:56:14;;;;;;;1.03;0.83;;;;;;;;;;4972336;28;20564;-84
2024/01/26 07:58:39;;;;;;;0.45;0.40;;;;;;;;;;4981089;28;20206;-83
2024/01/26 08:01:06;;;;;;;1.00;0.80;;;;;;;;;;4969176;28;20558;-85
2024/01/26 08:03:31;;;;;;;0.40;0.30;;;9.80;99.90;;;;;;4980887;28;20414;-85
2024/01/26 08:05:57;;;;;;;0.70;0.50;;;;;;;;;;4973672;28;20260;-83
2024/01/26 08:08:23;;;;;;;0.50;0.50;;;;;;;;;;4975394;28;20668;-83
2024/01/26 08:10:49;;;;;;;0.73;0.63;;;;;;;;;;4975449;28;20431;-85
2024/01/26 08:13:15;;;;;;;0.60;0.60;;;;;;;;;;4977285;28;20663;-85
2024/01/26 08:15:41;;;;;;;0.80;0.67;;;;;;;;;;4981414;28;20474;-85
2024/01/26 08:18:07;;;;;;;0.43;0.40;;;;;;;;;;4991524;28;20462;-84
2024/01/26 08:20:33;;;;;;;3.38;1.30;;;;;;;;;;4973823;28;20442;-84
2024/01/26 08:22:59;;;;;;;0.70;0.70;;;;;;;;;;4979752;28;20176;-84
2024/01/26 08:25:25;;;;;;;1.10;0.60;;;;;;;;;;4976142;28;20493;-84
2024/01/26 08:27:53;;;;;;;1.35;0.60;;;;;;;;;;4977421;28;20519;-83
2024/01/26 08:30:22;;;;;;;1.05;0.75;;;;;;;;;;4976218;28;20522;-84
2024/01/26 08:32:48;;;;;;;2.60;0.60;;;;;;;;;;4979665;28;20187;-84
2024/01/26 08:35:14;;;;;;;0.57;0.43;;;;;;;;;;4975517;28;20223;-84
2024/01/26 08:37:40;;;;;;;0.60;0.60;;;;;;;;;;4990417;28;20812;-85
2024/01/26 08:40:06;;;;;;;1.33;0.83;;;10.40;99.90;;;;;;4977576;28;20612;-84
2024/01/26 08:42:33;;;;;;;0.57;0.40;;;10.40;99.90;;;;;;4979475;28;20443;-84
2024/01/26 08:44:59;;;;;;;0.75;0.50;;;;;;;;;;4977067;28;20238;-85
2024/01/26 08:47:25;;;;;;;2.67;0.77;;;;;;;;;;4974857;28;20184;-84
2024/01/26 08:49:51;;;;;;;0.93;0.80;;;;;;;;;;4979149;28;20435;-84
2024/01/26 08:52:17;;;;;;;1.10;0.73;;;;;;;;;;4975664;28;20458;-85
2024/01/26 08:54:43;;;;;;;1.70;0.63;;;;;;;;;;4978053;28;20450;-84
2024/01/26 08:57:09;;;;;;;1.37;0.50;;;;;;;;;;4996554;28;20481;-83
2024/01/26 08:59:34;;;;;;;0.63;0.50;;;;;;;;;;4973580;28;20436;-83
2024/01/26 09:02:01;;;;;;;0.80;0.57;;;;;;;;;;4970330;28;20435;-82
2024/01/26 09:04:27;;;;;;;0.77;0.50;;;;;;;;;;4976056;28;20443;-84
2024/01/26 09:06:53;;;;;;;3.30;1.00;;;;;;;;;;4977496;28;20204;-84
2024/01/26 09:09:19;;;;;;;0.83;0.60;;;;;;;;;;4976123;28;20436;-84
2024/01/26 09:11:45;;;;;;;5.27;1.70;;;;;;;;;;4989407;28;20978;-84
2024/01/26 09:14:11;;;;;;;0.80;0.80;;;;;;;;;;4976036;28;20974;-84
2024/01/26 09:16:37;;;;;;;1.63;0.73;;;;;;;;;;4976583;28;20200;-86
2024/01/26 09:19:03;;;;;;;0.70;0.70;;;;;;;;;;4972188;28;20431;-84
2024/01/26 09:21:29;;;;;;;0.80;0.70;;;;;;;;;;4973542;28;20422;-85
2024/01/26 09:23:55;;;;;;;3.53;1.83;;;;;;;;;;4973514;28;20830;-84
2024/01/26 09:26:21;;;;;;;4.67;1.40;;;;;;;;;;4973628;28;20427;-84
2024/01/26 09:28:47;;;;;;;1.23;1.13;;;;;;;;;;4980362;28;20561;-85
2024/01/26 09:31:13;;;;;;;0.97;0.97;;;;;;;;;;4984133;28;20211;-85
2024/01/26 09:33:39;;;;;;;2.23;0.77;;;;;;;;;;4976713;28;20435;-85
2024/01/26 09:36:05;;;;;;;0.60;0.50;;;;;;;;;;4984207;28;20459;-85
2024/01/26 09:38:31;;;;;;;0.70;0.40;;;;;;;;;;4973575;28;20439;-83
2024/01/26 09:40:57;;;;;;;19.53;1.00;;;;;;;;;;4981064;28;20238;-85
2024/01/26 09:43:23;;;;;;;0.90;0.80;;;11.20;99.90;;;;;;4978352;28;20445;-84
2024/01/26 09:45:52;;;;;;;0.80;0.63;;;11.30;99.90;;;;;;4989478;28;20466;-84
2024/01/26 09:48:18;;;;;;;1.35;0.60;;;11.40;99.90;;;;;;4975985;28;20176;-83
2024/01/26 09:50:50;;;;;;;0.50;0.43;;;;;;;;;;4970647;28;20183;-84
2024/01/26 09:53:17;;;;;;;1.45;0.68;;;11.40;99.90;;;;;;4969329;28;20222;-84
2024/01/26 09:55:45;;;;;;;0.65;0.60;;;11.40;99.90;;;;;;4975416;28;20238;-83
2024/01/26 09:58:10;;;;;;;0.98;0.90;;;11.20;99.90;;;;;;4969935;28;20181;-85
2024/01/26 10:00:36;;;;;;;1.50;1.30;;;;;;;;;;4971234;28;20184;-83
2024/01/26 10:03:02;;;;;;;0.50;0.50;;;;;;;;;;4972137;28;20825;-83
2024/01/26 10:05:28;;;;;;;2.45;1.33;;;;;;;;;;4971339;28;20439;-84
2024/01/26 10:07:55;;;;;;;0.57;0.30;;;;;;;;;;4975264;28;20199;-84
2024/01/26 10:10:21;;;;;;;0.60;0.52;;;;;;;;;;4975398;28;20727;-84
2024/01/26 10:12:47;;;;;;;1.00;0.70;;;;;;;;;;4973240;28;20196;-84
2024/01/26 10:15:13;;;;;;;0.50;0.40;;;;;;;;;;4974406;28;20443;-84
2024/01/26 10:17:39;;;;;;;3.60;1.00;;;11.60;99.90;;;;;;4974197;28;21026;-84
2024/01/26 10:20:07;;;;;;;0.40;0.40;;;11.40;99.90;;;;;;4987339;28;20235;-83
2024/01/26 10:22:33;;;;;;;1.63;0.77;;;;;;;;;;4973827;28;20442;-83
2024/01/26 10:25:02;;;;;;;0.60;0.40;;;;;;;;;;4993025;28;20254;-83
2024/01/26 10:27:28;;;;;;;0.70;0.63;;;;;;;;;;4977140;28;20180;-83
2024/01/26 10:29:54;;;;;;;1.13;0.50;;;;;;;;;;4973955;28;20730;-82
2024/01/26 10:32:20;;;;;;;2.93;0.50;;;11.20;99.90;;;;;;4981297;28;20485;-83
2024/01/26 10:34:47;;;;;;;0.70;0.68;;;11.10;99.90;;;;;;4974733;28;20582;-83
2024/01/26 10:37:18;;;;;;;0.80;0.43;;;11.10;99.90;;;;;;4979392;28;20206;-83
2024/01/26 10:39:47;;;;;;;0.60;0.60;;;11.10;99.90;;;;;;4975323;28;20179;-83
2024/01/26 10:42:14;;;;;;;0.60;0.60;;;11.30;99.90;;;;;;4980669;28;20244;-84
2024/01/26 10:44:40;;;;;;;1.83;0.60;;;;;;;;;;4972144;28;20354;-83
2024/01/26 10:47:08;;;;;;;1.13;0.60;;;11.30;99.90;;;;;;4972311;28;20580;-82
2024/01/26 10:49:36;;;;;;;0.82;0.50;;;11.10;99.90;;;;;;4972109;28;20453;-83
2024/01/26 10:52:05;;;;;;;0.98;0.60;;;11.30;99.90;;;;;;4988045;28;20665;-82
2024/01/26 10:54:32;;;;;;;0.75;0.50;;;11.40;99.90;;;;;;4977236;28;20197;-82
2024/01/26 10:56:58;;;;;;;1.10;0.55;;;11.50;99.90;;;;;;4969302;28;20734;-83
2024/01/26 10:59:25;;;;;;;1.90;0.60;;;;;;;;;;4974650;28;20189;-82
2024/01/26 11:01:51;;;;;;;0.40;0.40;;;;;;;;;;4982289;28;20178;-83
2024/01/26 11:04:18;;;;;;;2.55;1.25;;;11.20;99.90;;;;;;4980036;28;20203;-84
2024/01/26 11:06:44;;;;;;;0.95;0.52;;;11.20;99.90;;;;;;4971955;28;20378;-83
2024/01/26 11:09:11;;;;;;;0.40;0.30;;;11.30;99.90;;;;;;4972497;28;20264;-82
2024/01/26 11:11:38;;;;;;;5.72;1.00;;;11.40;99.90;;;;;;4970090;28;20694;-82
2024/01/26 11:14:05;;;;;;;1.00;0.77;;;11.40;99.90;;;;;;4988009;28;20207;-82
2024/01/26 11:16:42;;;;;;;1.95;0.60;;;11.50;99.90;;;;;;4973501;28;20196;-82
2024/01/26 11:19:08;;;;;;;0.60;0.50;;;;;;;;;;4971340;28;20176;-81
2024/01/26 11:21:38;;;;;;;2.53;0.63;;;11.50;99.90;;;;;;4972294;28;20180;-82
2024/01/26 11:24:15;;;;;;;0.60;0.45;;;11.50;99.90;;;;;;4974193;28;20533;-82
2024/01/26 11:26:41;;;;;;;0.60;0.60;;;11.60;99.90;;;;;;4975298;28;20183;-82
2024/01/26 11:29:14;;;;;;;0.40;0.37;;;11.80;99.90;;;;;;4973239;28;20588;-84
2024/01/26 11:31:42;;;;;;;0.50;0.50;;;11.70;99.90;;;;;;4977266;28;20490;-83
2024/01/26 11:34:37;;;;;;;0.93;0.88;;;11.60;99.90;;;;;;4997124;28;20213;-82
2024/01/26 11:37:13;;;;;;;0.80;0.40;;;11.50;99.90;;;;;;4979243;28;20302;-83
2024/01/26 11:39:40;;;;;;;0.73;0.52;;;;;;;;;;4979303;28;20179;-83
2024/01/26 11:42:10;;;;;;;0.68;0.50;;;11.00;99.90;;;;;;4982847;28;20184;-85
2024/01/26 11:44:49;;;;;;;0.50;0.40;;;11.30;99.90;;;;;;4980547;28;20199;-83
2024/01/26 11:47:15;;;;;;;0.88;0.60;;;;;;;;;;4981109;28;20179;-83
2024/01/26 11:49:42;;;;;;;0.60;0.47;;;;;;;;;;4979665;28;20671;-85
2024/01/26 11:52:09;;;;;;;2.95;0.80;;;;;;;;;;4983248;28;20179;-85
2024/01/26 11:54:35;;;;;;;0.55;0.43;;;11.30;99.90;;;;;;4980301;28;20211;-85
2024/01/26 11:57:04;;;;;;;0.60;0.40;;;;;;;;;;4981241;28;20687;-85
2024/01/26 11:59:30;;;;;;;0.85;0.45;;;;;;;;;;4977229;28;20469;-85
2024/01/26 12:01:56;;;;;;;0.60;0.50;;;;;;;;;;4980126;28;20694;-83
2024/01/26 12:04:23;;;;;;;0.70;0.40;;;11.10;99.90;;;;;;4979442;28;20947;-84
2024/01/26 12:06:50;;;;;;;1.90;1.45;;;11.20;99.90;;;;;;4971618;28;20223;-83
2024/01/26 12:09:16;;;;;;;0.85;0.40;;;;;;;;;;4993684;28;20177;-85
2024/01/26 12:11:42;;;;;;;0.45;0.35;;;;;;;;;;4995327;28;20188;-84
2024/01/26 12:14:08;;;;;;;0.40;0.40;;;;;;;;;;4976855;28;20199;-83
2024/01/26 12:16:34;;;;;;;0.40;0.40;;;;;;;;;;4984526;28;20526;-83
2024/01/26 12:19:02;;;;;;;2.17;1.37;;;;;;;;;;4974725;28;20466;-83
2024/01/26 12:21:29;;;;;;;7.97;0.98;;;10.70;99.90;;;;;;4979644;28;20434;-85
2024/01/26 12:23:54;;;;;;;0.50;0.50;;;10.80;99.90;;;;;;4975400;28;20206;-85
2024/01/26 12:26:20;;;;;;;3.77;0.63;;;;;;;;;;4973491;28;20188;-85
2024/01/26 12:28:46;;;;;;;0.80;0.55;;;;;;;;;;4977991;28;20195;-85
2024/01/26 12:31:15;;;;;;;1.05;0.57;;;;;;;;;;4976676;28;20574;-85
2024/01/26 12:33:40;;;;;;;0.82;0.50;;;;;;;;;;4981762;28;20204;-85
2024/01/26 12:36:09;;;;;;;0.60;0.33;;;10.60;99.90;;;;;;4971602;28;20207;-85
2024/01/26 12:38:35;;;;;;;1.48;0.40;;;;;;;;;;4977985;28;20432;-85
2024/01/26 12:41:01;;;;;;;2.70;0.73;;;;;;;;;;4981966;28;20172;-85
2024/01/26 12:43:27;;;;;;;0.70;0.30;;;;;;;;;;4976271;28;20203;-85
2024/01/26 12:45:53;;;;;;;0.43;0.40;;;;;;;;;;4970244;28;20535;-85
2024/01/26 12:48:22;;;;;;;1.52;0.70;;;10.60;99.90;;;;;;4978329;28;20187;-85
2024/01/26 12:50:48;;;;;;;0.95;0.57;;;;;;;;;;4988700;28;20211;-85
2024/01/26 12:53:14;;;;;;;0.40;0.30;;;10.70;99.90;;;;;;4974378;28;20196;-85
2024/01/26 12:55:40;;;;;;;0.30;0.28;;;10.60;99.90;;;;;;4977831;28;20218;-85
2024/01/26 12:58:07;;;;;;;2.00;0.43;;;;;;;;;;4975971;28;20183;-85
2024/01/26 13:00:33;;;;;;;1.40;0.40;;;;;;;;;;4974987;28;20192;-84
2024/01/26 13:03:00;;;;;;;0.40;0.30;;;10.60;99.90;;;;;;4977590;28;20179;-84
2024/01/26 13:05:26;;;;;;;0.73;0.43;;;;;;;;;;4978598;28;21016;-84
2024/01/26 13:07:51;;;;;;;0.40;0.40;;;10.60;99.90;;;;;;4980552;28;20182;-84
2024/01/26 13:10:17;;;;;;;0.40;0.30;;;;;;;;;;4978425;28;20497;-85
2024/01/26 13:12:43;;;;;;;0.50;0.30;;;;;;;;;;4979631;28;20628;-85
2024/01/26 13:15:10;;;;;;;0.50;0.37;;;10.40;99.90;;;;;;4986724;28;20447;-85
2024/01/26 13:17:36;;;;;;;0.40;0.30;;;;;;;;;;4976642;28;20844;-85
2024/01/26 13:20:02;;;;;;;0.50;0.40;;;10.60;99.90;;;;;;4968554;28;20227;-84
2024/01/26 13:22:28;;;;;;;0.40;0.40;;;;;;;;;;4977372;28;20188;-84
2024/01/26 13:24:54;;;;;;;0.40;0.30;;;;;;;;;;4979302;28;20498;-85
2024/01/26 13:27:20;;;;;;;1.33;0.83;;;;;;;;;;4980075;28;20435;-86
2024/01/26 13:29:46;;;;;;;0.30;0.30;;;;;;;;;;4978305;28;20751;-84
2024/01/26 13:32:12;;;;;;;0.60;0.40;;;;;;;;;;4978799;28;20509;-84
2024/01/26 13:34:38;;;;;;;0.40;0.30;;;;;;;;;;4995535;28;20523;-85
2024/01/26 13:37:04;;;;;;;0.70;0.70;;;;;;;;;;4992704;28;20239;-85
2024/01/26 13:39:29;;;;;;;0.40;0.40;;;;;;;;;;4976998;28;20423;-84
2024/01/26 13:41:55;;;;;;;0.50;0.40;;;;;;;;;;4977523;28;20518;-85
2024/01/26 13:44:21;;;;;;;0.40;0.33;;;10.80;99.90;;;;;;4980589;28;20569;-84
2024/01/26 13:46:47;;;;;;;0.80;0.80;;;;;;;;;;4977447;28;20843;-85
2024/01/26 13:49:13;;;;;;;0.73;0.40;;;10.70;99.90;;;;;;4986770;28;20183;-84
2024/01/26 13:51:39;;;;;;;0.60;0.40;;;;;;;;;;4977531;28;20202;-84
2024/01/26 13:54:05;;;;;;;0.40;0.40;;;;;;;;;;4973357;28;20203;-84
2024/01/26 13:56:31;;;;;;;0.97;0.50;;;;;;;;;;4984384;28;20262;-85
2024/01/26 13:58:57;;;;;;;0.70;0.50;;;;;;;;;;4976744;28;20462;-85
2024/01/26 14:01:23;;;;;;;0.50;0.40;;;;;;;;;;4974730;28;20180;-84
2024/01/26 14:03:50;;;;;;;0.40;0.30;;;10.70;99.90;;;;;;4970797;28;20464;-85
2024/01/26 14:06:16;;;;;;;0.40;0.30;;;;;;;;;;4983649;28;20216;-86
2024/01/26 14:08:41;;;;;;;1.13;0.57;;;10.60;99.90;;;;;;4969915;28;20733;-85
2024/01/26 14:11:07;;;;;;;0.40;0.30;;;;;;;;;;4990131;28;20773;-85